sensor_id;sensor_type;location;lat;lon;timestamp;pressure;altitude;pressure_sealevel;temperature;humidity
50011;BME280;35899;50.352;19.390;2023-07-08T00:00:21;98449.52;;;14.34;66.21
50011;BME280;35899;50.352;19.390;2023-07-08T00:03:08;98448.33;;;14.13;66.05
50011;BME280;35899;50.352;19.390;2023-07-08T00:05:36;98448.92;;;13.96;66.33
50011;BME280;35899;50.352;19.390;2023-07-08T00:08:03;98454.40;;;13.83;66.52
50011;BME280;35899;50.352;19.390;2023-07-08T00:10:29;98454.96;;;13.71;66.64
50011;BME280;35899;50.352;19.390;2023-07-08T00:12:57;98454.80;;;13.62;66.73
50011;BME280;35899;50.352;19.390;2023-07-08T00:15:25;98449.67;;;13.54;66.99
50011;BME280;35899;50.352;19.390;2023-07-08T00:17:52;98446.56;;;13.48;67.26
50011;BME280;35899;50.352;19.390;2023-07-08T00:20:23;98444.94;;;13.49;67.89
50011;BME280;35899;50.352;19.390;2023-07-08T00:22:53;98449.82;;;13.56;68.28
50011;BME280;35899;50.352;19.390;2023-07-08T00:25:20;98447.71;;;13.59;68.27
50011;BME280;35899;50.352;19.390;2023-07-08T00:27:47;98449.81;;;13.49;67.82
50011;BME280;35899;50.352;19.390;2023-07-08T00:30:24;98451.01;;;13.38;67.82
50011;BME280;35899;50.352;19.390;2023-07-08T00:32:51;98449.45;;;13.25;67.99
50011;BME280;35899;50.352;19.390;2023-07-08T00:35:18;98445.54;;;13.22;68.36
50011;BME280;35899;50.352;19.390;2023-07-08T00:37:44;98444.16;;;13.24;68.75
50011;BME280;35899;50.352;19.390;2023-07-08T00:40:15;98446.77;;;13.24;68.94
50011;BME280;35899;50.352;19.390;2023-07-08T00:42:43;98447.81;;;13.19;68.97
50011;BME280;35899;50.352;19.390;2023-07-08T00:45:15;98449.99;;;13.13;69.14
50011;BME280;35899;50.352;19.390;2023-07-08T00:47:42;98447.84;;;13.09;69.44
50011;BME280;35899;50.352;19.390;2023-07-08T00:50:10;98442.90;;;13.07;69.56
50011;BME280;35899;50.352;19.390;2023-07-08T00:52:37;98438.91;;;13.10;70.07
50011;BME280;35899;50.352;19.390;2023-07-08T00:55:05;98443.92;;;13.18;70.35
50011;BME280;35899;50.352;19.390;2023-07-08T00:57:34;98446.34;;;13.18;70.13
50011;BME280;35899;50.352;19.390;2023-07-08T01:00:06;98443.73;;;13.18;70.26
50011;BME280;35899;50.352;19.390;2023-07-08T01:02:35;98442.17;;;13.22;70.41
50011;BME280;35899;50.352;19.390;2023-07-08T01:05:12;98440.65;;;13.26;70.60
50011;BME280;35899;50.352;19.390;2023-07-08T01:07:41;98437.70;;;13.29;70.60
50011;BME280;35899;50.352;19.390;2023-07-08T01:10:12;98437.66;;;13.29;70.66
50011;BME280;35899;50.352;19.390;2023-07-08T01:12:43;98436.78;;;13.29;70.62
50011;BME280;35899;50.352;19.390;2023-07-08T01:15:12;98439.20;;;13.27;70.60
50011;BME280;35899;50.352;19.390;2023-07-08T01:17:38;98436.15;;;13.26;70.64
50011;BME280;35899;50.352;19.390;2023-07-08T01:20:05;98433.45;;;13.25;70.73
50011;BME280;35899;50.352;19.390;2023-07-08T01:22:37;98429.84;;;13.20;70.47
50011;BME280;35899;50.352;19.390;2023-07-08T01:25:04;98429.27;;;13.14;70.40
50011;BME280;35899;50.352;19.390;2023-07-08T01:27:31;98433.77;;;13.11;70.53
50011;BME280;35899;50.352;19.390;2023-07-08T01:30:00;98428.23;;;13.06;70.39
50011;BME280;35899;50.352;19.390;2023-07-08T01:32:32;98427.23;;;12.96;70.29
50011;BME280;35899;50.352;19.390;2023-07-08T01:35:01;98429.55;;;12.85;70.29
50011;BME280;35899;50.352;19.390;2023-07-08T01:37:28;98429.31;;;12.79;70.51
50011;BME280;35899;50.352;19.390;2023-07-08T01:39:56;98433.27;;;12.79;71.05
50011;BME280;35899;50.352;19.390;2023-07-08T01:42:22;98437.54;;;12.85;71.56
50011;BME280;35899;50.352;19.390;2023-07-08T01:44:49;98435.45;;;12.87;71.50
50011;BME280;35899;50.352;19.390;2023-07-08T01:47:19;98431.52;;;12.89;71.61
50011;BME280;35899;50.352;19.390;2023-07-08T01:49:47;98427.67;;;12.90;71.67
50011;BME280;35899;50.352;19.390;2023-07-08T01:52:14;98423.31;;;12.87;71.65
50011;BME280;35899;50.352;19.390;2023-07-08T01:54:42;98424.17;;;12.87;71.73
50011;BME280;35899;50.352;19.390;2023-07-08T01:57:08;98427.45;;;12.85;71.61
50011;BME280;35899;50.352;19.390;2023-07-08T01:59:35;98422.16;;;12.75;70.99
50011;BME280;35899;50.352;19.390;2023-07-08T02:02:02;98426.75;;;12.66;71.11
50011;BME280;35899;50.352;19.390;2023-07-08T02:04:28;98426.48;;;12.65;71.50
50011;BME280;35899;50.352;19.390;2023-07-08T02:06:55;98423.99;;;12.66;71.73
50011;BME280;35899;50.352;19.390;2023-07-08T02:09:22;98422.50;;;12.67;71.82
50011;BME280;35899;50.352;19.390;2023-07-08T02:11:49;98426.20;;;12.66;71.75
50011;BME280;35899;50.352;19.390;2023-07-08T02:14:16;98424.70;;;12.63;71.80
50011;BME280;35899;50.352;19.390;2023-07-08T02:16:43;98425.21;;;12.61;71.86
50011;BME280;35899;50.352;19.390;2023-07-08T02:19:10;98419.88;;;12.58;71.99
50011;BME280;35899;50.352;19.390;2023-07-08T02:21:36;98423.52;;;12.55;72.15
50011;BME280;35899;50.352;19.390;2023-07-08T02:24:03;98423.61;;;12.54;72.24
50011;BME280;35899;50.352;19.390;2023-07-08T02:26:29;98421.60;;;12.53;72.43
50011;BME280;35899;50.352;19.390;2023-07-08T02:28:56;98418.85;;;12.53;72.40
50011;BME280;35899;50.352;19.390;2023-07-08T02:31:23;98419.84;;;12.48;72.21
50011;BME280;35899;50.352;19.390;2023-07-08T02:33:49;98419.98;;;12.44;72.16
50011;BME280;35899;50.352;19.390;2023-07-08T02:36:16;98423.38;;;12.40;72.15
50011;BME280;35899;50.352;19.390;2023-07-08T02:38:42;98428.84;;;12.31;71.84
50011;BME280;35899;50.352;19.390;2023-07-08T02:41:09;98430.17;;;12.19;71.74
50011;BME280;35899;50.352;19.390;2023-07-08T02:43:35;98436.39;;;12.09;71.66
50011;BME280;35899;50.352;19.390;2023-07-08T02:46:02;98430.61;;;12.00;71.76
50011;BME280;35899;50.352;19.390;2023-07-08T02:48:28;98433.11;;;11.91;71.68
50011;BME280;35899;50.352;19.390;2023-07-08T02:50:59;98435.05;;;11.85;72.17
50011;BME280;35899;50.352;19.390;2023-07-08T02:53:26;98433.52;;;11.87;72.47
50011;BME280;35899;50.352;19.390;2023-07-08T02:55:52;98437.92;;;11.89;72.65
50011;BME280;35899;50.352;19.390;2023-07-08T02:58:19;98440.69;;;11.86;72.39
50011;BME280;35899;50.352;19.390;2023-07-08T03:00:50;98447.27;;;11.81;72.31
50011;BME280;35899;50.352;19.390;2023-07-08T03:03:17;98448.23;;;11.78;72.28
50011;BME280;35899;50.352;19.390;2023-07-08T03:05:52;98447.25;;;11.77;72.35
50011;BME280;35899;50.352;19.390;2023-07-08T03:08:19;98451.27;;;11.82;72.73
50011;BME280;35899;50.352;19.390;2023-07-08T03:10:53;98448.54;;;11.94;73.24
50011;BME280;35899;50.352;19.390;2023-07-08T03:13:20;98444.86;;;12.07;73.44
50011;BME280;35899;50.352;19.390;2023-07-08T03:15:47;98444.96;;;12.19;73.56
50011;BME280;35899;50.352;19.390;2023-07-08T03:18:13;98446.55;;;12.31;73.65
50011;BME280;35899;50.352;19.390;2023-07-08T03:20:40;98449.65;;;12.41;73.40
50011;BME280;35899;50.352;19.390;2023-07-08T03:23:07;98446.44;;;12.48;73.15
50011;BME280;35899;50.352;19.390;2023-07-08T03:25:35;98448.75;;;12.54;73.00
50011;BME280;35899;50.352;19.390;2023-07-08T03:28:02;98447.92;;;12.61;72.79
50011;BME280;35899;50.352;19.390;2023-07-08T03:30:29;98452.54;;;12.67;72.76
50011;BME280;35899;50.352;19.390;2023-07-08T03:32:57;98448.95;;;12.74;72.76
50011;BME280;35899;50.352;19.390;2023-07-08T03:35:23;98451.30;;;12.77;72.46
50011;BME280;35899;50.352;19.390;2023-07-08T03:37:50;98452.88;;;12.80;72.46
50011;BME280;35899;50.352;19.390;2023-07-08T03:40:17;98453.14;;;12.83;72.32
50011;BME280;35899;50.352;19.390;2023-07-08T03:42:44;98449.25;;;12.87;72.25
50011;BME280;35899;50.352;19.390;2023-07-08T03:45:12;98449.23;;;12.92;72.40
50011;BME280;35899;50.352;19.390;2023-07-08T03:47:39;98445.98;;;13.01;72.52
50011;BME280;35899;50.352;19.390;2023-07-08T03:50:09;98442.28;;;13.16;72.74
50011;BME280;35899;50.352;19.390;2023-07-08T03:52:37;98439.35;;;13.35;73.10
50011;BME280;35899;50.352;19.390;2023-07-08T03:55:04;98436.86;;;13.53;72.95
50011;BME280;35899;50.352;19.390;2023-07-08T03:57:31;98436.28;;;13.65;72.91
50011;BME280;35899;50.352;19.390;2023-07-08T03:59:58;98434.66;;;13.71;72.60
50011;BME280;35899;50.352;19.390;2023-07-08T04:02:25;98433.13;;;13.75;72.65
50011;BME280;35899;50.352;19.390;2023-07-08T04:04:52;98436.71;;;13.80;72.80
50011;BME280;35899;50.352;19.390;2023-07-08T04:07:18;98435.90;;;13.86;72.83
50011;BME280;35899;50.352;19.390;2023-07-08T04:09:45;98432.23;;;13.94;73.01
50011;BME280;35899;50.352;19.390;2023-07-08T04:12:11;98433.05;;;14.01;72.97
50011;BME280;35899;50.352;19.390;2023-07-08T04:14:38;98435.47;;;14.11;73.23
50011;BME280;35899;50.352;19.390;2023-07-08T04:17:05;98437.17;;;14.20;73.12
50011;BME280;35899;50.352;19.390;2023-07-08T04:19:31;98433.92;;;14.29;73.23
50011;BME280;35899;50.352;19.390;2023-07-08T04:21:58;98434.57;;;14.36;72.85
50011;BME280;35899;50.352;19.390;2023-07-08T04:24:24;98432.67;;;14.40;72.61
50011;BME280;35899;50.352;19.390;2023-07-08T04:26:51;98429.66;;;14.43;72.22
50011;BME280;35899;50.352;19.390;2023-07-08T04:29:19;98428.52;;;14.51;72.49
50011;BME280;35899;50.352;19.390;2023-07-08T04:31:47;98427.34;;;14.62;72.46
50011;BME280;35899;50.352;19.390;2023-07-08T04:34:14;98428.91;;;14.75;72.33
50011;BME280;35899;50.352;19.390;2023-07-08T04:36:41;98432.20;;;14.86;72.29
50011;BME280;35899;50.352;19.390;2023-07-08T04:39:08;98435.50;;;14.97;72.31
50011;BME280;35899;50.352;19.390;2023-07-08T04:41:36;98438.61;;;15.07;72.10
50011;BME280;35899;50.352;19.390;2023-07-08T04:44:03;98438.21;;;15.16;72.04
50011;BME280;35899;50.352;19.390;2023-07-08T04:46:51;98433.65;;;15.25;72.17
50011;BME280;35899;50.352;19.390;2023-07-08T04:49:17;98435.63;;;15.35;71.78
50011;BME280;35899;50.352;19.390;2023-07-08T04:51:43;98435.31;;;15.43;71.58
50011;BME280;35899;50.352;19.390;2023-07-08T04:54:10;98433.49;;;15.53;72.02
50011;BME280;35899;50.352;19.390;2023-07-08T04:56:41;98431.30;;;15.62;71.71
50011;BME280;35899;50.352;19.390;2023-07-08T04:59:12;98424.02;;;15.70;71.54
50011;BME280;35899;50.352;19.390;2023-07-08T05:01:39;98424.61;;;15.76;71.33
50011;BME280;35899;50.352;19.390;2023-07-08T05:04:06;98423.66;;;15.83;71.20
50011;BME280;35899;50.352;19.390;2023-07-08T05:06:33;98426.84;;;15.93;71.37
50011;BME280;35899;50.352;19.390;2023-07-08T05:09:01;98426.98;;;16.02;71.10
50011;BME280;35899;50.352;19.390;2023-07-08T05:11:27;98421.56;;;16.12;71.26
50011;BME280;35899;50.352;19.390;2023-07-08T05:13:54;98423.45;;;16.27;71.46
50011;BME280;35899;50.352;19.390;2023-07-08T05:16:21;98424.95;;;16.40;71.54
50011;BME280;35899;50.352;19.390;2023-07-08T05:18:48;98419.92;;;16.54;72.01
50011;BME280;35899;50.352;19.390;2023-07-08T05:21:14;98423.95;;;16.68;71.93
50011;BME280;35899;50.352;19.390;2023-07-08T05:23:41;98425.88;;;16.80;71.73
50011;BME280;35899;50.352;19.390;2023-07-08T05:26:07;98427.02;;;16.93;71.73
50011;BME280;35899;50.352;19.390;2023-07-08T05:28:34;98425.30;;;17.04;71.79
50011;BME280;35899;50.352;19.390;2023-07-08T05:31:00;98421.34;;;17.17;71.75
50011;BME280;35899;50.352;19.390;2023-07-08T05:33:28;98420.17;;;17.31;71.85
50011;BME280;35899;50.352;19.390;2023-07-08T05:35:59;98418.80;;;17.40;71.65
50011;BME280;35899;50.352;19.390;2023-07-08T05:38:26;98420.04;;;17.49;71.72
50011;BME280;35899;50.352;19.390;2023-07-08T05:40:54;98422.45;;;17.63;71.74
50011;BME280;35899;50.352;19.390;2023-07-08T05:43:21;98416.77;;;17.74;71.48
50011;BME280;35899;50.352;19.390;2023-07-08T05:45:48;98415.52;;;17.84;71.25
50011;BME280;35899;50.352;19.390;2023-07-08T05:48:31;98416.11;;;17.94;70.99
50011;BME280;35899;50.352;19.390;2023-07-08T05:50:58;98415.05;;;18.06;71.08
50011;BME280;35899;50.352;19.390;2023-07-08T05:53:25;98417.19;;;18.19;71.11
50011;BME280;35899;50.352;19.390;2023-07-08T05:55:52;98420.35;;;18.32;70.99
50011;BME280;35899;50.352;19.390;2023-07-08T05:58:18;98420.24;;;18.46;70.92
50011;BME280;35899;50.352;19.390;2023-07-08T06:00:58;98427.95;;;18.59;70.28
50011;BME280;35899;50.352;19.390;2023-07-08T06:03:26;98425.94;;;18.67;69.70
50011;BME280;35899;50.352;19.390;2023-07-08T06:05:53;98428.04;;;18.80;69.47
50011;BME280;35899;50.352;19.390;2023-07-08T06:08:21;98426.21;;;18.96;69.53
50011;BME280;35899;50.352;19.390;2023-07-08T06:10:53;98425.80;;;19.09;69.05
50011;BME280;35899;50.352;19.390;2023-07-08T06:13:23;98425.56;;;19.24;69.21
50011;BME280;35899;50.352;19.390;2023-07-08T06:15:52;98430.36;;;19.42;69.40
50011;BME280;35899;50.352;19.390;2023-07-08T06:18:46;98428.61;;;19.57;68.84
50011;BME280;35899;50.352;19.390;2023-07-08T06:21:54;98429.15;;;19.77;68.62
50011;BME280;35899;50.352;19.390;2023-07-08T06:39:39;98430.59;;;20.85;66.63
50011;BME280;35899;50.352;19.390;2023-07-08T06:42:28;98430.79;;;20.98;64.36
50011;BME280;35899;50.352;19.390;2023-07-08T06:45:25;98432.52;;;21.05;62.40
50011;BME280;35899;50.352;19.390;2023-07-08T06:48:08;98432.80;;;21.11;61.50
50011;BME280;35899;50.352;19.390;2023-07-08T06:50:57;98433.44;;;21.25;61.87
50011;BME280;35899;50.352;19.390;2023-07-08T06:53:24;98433.98;;;21.35;61.15
50011;BME280;35899;50.352;19.390;2023-07-08T06:55:57;98434.01;;;21.48;61.35
50011;BME280;35899;50.352;19.390;2023-07-08T06:58:24;98429.33;;;21.61;61.20
50011;BME280;35899;50.352;19.390;2023-07-08T07:01:34;98425.55;;;21.74;60.44
50011;BME280;35899;50.352;19.390;2023-07-08T07:04:31;98424.33;;;21.84;59.98
50011;BME280;35899;50.352;19.390;2023-07-08T07:06:58;98424.73;;;21.93;59.27
50011;BME280;35899;50.352;19.390;2023-07-08T07:09:44;98425.58;;;21.98;58.13
50011;BME280;35899;50.352;19.390;2023-07-08T07:15:01;98422.83;;;22.17;57.38
50011;BME280;35899;50.352;19.390;2023-07-08T07:18:09;98420.27;;;22.29;56.58
50011;BME280;35899;50.352;19.390;2023-07-08T07:20:38;98420.23;;;22.39;55.67
50011;BME280;35899;50.352;19.390;2023-07-08T07:29:45;98424.36;;;22.76;53.87
50011;BME280;35899;50.352;19.390;2023-07-08T07:36:18;98429.48;;;22.96;52.79
50011;BME280;35899;50.352;19.390;2023-07-08T07:39:11;98430.31;;;23.07;52.62
50011;BME280;35899;50.352;19.390;2023-07-08T07:42:21;98430.63;;;23.19;51.76
50011;BME280;35899;50.352;19.390;2023-07-08T07:44:58;98429.74;;;23.32;50.79
50011;BME280;35899;50.352;19.390;2023-07-08T07:50:15;98423.45;;;23.48;50.91
50011;BME280;35899;50.352;19.390;2023-07-08T07:52:45;98421.09;;;23.59;51.37
50011;BME280;35899;50.352;19.390;2023-07-08T07:55:25;98423.96;;;23.66;50.33
50011;BME280;35899;50.352;19.390;2023-07-08T07:58:05;98426.08;;;23.71;49.11
50011;BME280;35899;50.352;19.390;2023-07-08T08:04:24;98431.46;;;23.93;48.07
50011;BME280;35899;50.352;19.390;2023-07-08T08:13:29;98432.39;;;24.12;45.95
50011;BME280;35899;50.352;19.390;2023-07-08T08:26:37;98439.02;;;24.46;43.55
50011;BME280;35899;50.352;19.390;2023-07-08T08:32:59;98436.95;;;24.57;41.77
50011;BME280;35899;50.352;19.390;2023-07-08T08:39:14;98432.97;;;24.73;40.70
50011;BME280;35899;50.352;19.390;2023-07-08T08:42:22;98427.77;;;24.75;40.07
50011;BME280;35899;50.352;19.390;2023-07-08T08:45:27;98427.03;;;24.78;39.95
50011;BME280;35899;50.352;19.390;2023-07-08T08:51:43;98429.39;;;24.84;39.19
50011;BME280;35899;50.352;19.390;2023-07-08T08:54:42;98422.86;;;24.89;39.37
50011;BME280;35899;50.352;19.390;2023-07-08T09:05:12;98412.42;;;25.32;41.18
50011;BME280;35899;50.352;19.390;2023-07-08T10:10:01;98393.84;;;27.50;37.23
50011;BME280;35899;50.352;19.390;2023-07-08T14:03:22;98278.61;;;50.17;12.74
50011;BME280;35899;50.352;19.390;2023-07-08T14:09:27;98279.06;;;50.02;12.57
50011;BME280;35899;50.352;19.390;2023-07-08T14:12:18;98279.67;;;49.87;12.76
50011;BME280;35899;50.352;19.390;2023-07-08T14:21:43;98271.86;;;50.01;12.72
50011;BME280;35899;50.352;19.390;2023-07-08T14:31:08;98268.83;;;49.96;11.57
50011;BME280;35899;50.352;19.390;2023-07-08T14:34:06;98264.79;;;50.28;11.53
50011;BME280;35899;50.352;19.390;2023-07-08T14:37:30;98263.47;;;50.37;11.75
50011;BME280;35899;50.352;19.390;2023-07-08T14:49:33;98252.94;;;50.92;11.52
50011;BME280;35899;50.352;19.390;2023-07-08T14:52:39;98251.98;;;51.00;11.70
50011;BME280;35899;50.352;19.390;2023-07-08T15:33:16;98234.52;;;52.20;10.95
50011;BME280;35899;50.352;19.390;2023-07-08T15:36:23;98235.98;;;52.28;10.60
50011;BME280;35899;50.352;19.390;2023-07-08T15:45:44;98233.16;;;51.09;11.96
50011;BME280;35899;50.352;19.390;2023-07-08T15:55:06;98230.87;;;50.85;11.33
50011;BME280;35899;50.352;19.390;2023-07-08T16:07:38;98230.65;;;50.32;11.90
50011;BME280;35899;50.352;19.390;2023-07-08T16:13:53;98229.13;;;50.20;11.55
50011;BME280;35899;50.352;19.390;2023-07-08T16:20:07;98232.79;;;49.95;11.79
50011;BME280;35899;50.352;19.390;2023-07-08T16:29:14;98222.32;;;50.63;12.13
50011;BME280;35899;50.352;19.390;2023-07-08T16:44:56;98221.46;;;49.20;13.68
50011;BME280;35899;50.352;19.390;2023-07-08T16:51:03;98218.14;;;49.60;13.28
50011;BME280;35899;50.352;19.390;2023-07-08T17:00:27;98217.24;;;49.41;12.71
50011;BME280;35899;50.352;19.390;2023-07-08T17:09:51;98210.48;;;48.38;13.41
50011;BME280;35899;50.352;19.390;2023-07-08T17:12:58;98210.15;;;47.95;13.98
50011;BME280;35899;50.352;19.390;2023-07-08T17:44:24;98200.34;;;34.19;21.40
50011;BME280;35899;50.352;19.390;2023-07-08T17:56:54;98196.66;;;31.35;23.62
50011;BME280;35899;50.352;19.390;2023-07-08T18:22:02;98197.23;;;28.03;27.52
50011;BME280;35899;50.352;19.390;2023-07-08T18:24:53;98200.58;;;27.76;28.07
50011;BME280;35899;50.352;19.390;2023-07-08T18:46:39;98193.08;;;25.96;32.86
50011;BME280;35899;50.352;19.390;2023-07-08T18:49:47;98196.34;;;25.74;33.69
50011;BME280;35899;50.352;19.390;2023-07-08T18:55:59;98203.04;;;25.34;34.77
50011;BME280;35899;50.352;19.390;2023-07-08T19:08:41;98210.48;;;24.39;35.50
50011;BME280;35899;50.352;19.390;2023-07-08T19:24:12;98222.47;;;23.26;38.19
50011;BME280;35899;50.352;19.390;2023-07-08T19:30:41;98223.64;;;22.91;39.10
50011;BME280;35899;50.352;19.390;2023-07-08T19:36:58;98216.40;;;22.59;40.16
50011;BME280;35899;50.352;19.390;2023-07-08T19:40:02;98218.10;;;22.41;40.26
50011;BME280;35899;50.352;19.390;2023-07-08T19:43:12;98218.61;;;22.24;40.54
50011;BME280;35899;50.352;19.390;2023-07-08T19:46:21;98222.55;;;22.08;40.94
50011;BME280;35899;50.352;19.390;2023-07-08T19:52:21;98229.35;;;21.41;42.84
50011;BME280;35899;50.352;19.390;2023-07-08T19:55:29;98228.66;;;21.23;43.85
50011;BME280;35899;50.352;19.390;2023-07-08T20:01:48;98220.14;;;20.86;45.66
50011;BME280;35899;50.352;19.390;2023-07-08T20:05:01;98218.79;;;20.71;46.79
50011;BME280;35899;50.352;19.390;2023-07-08T20:08:17;98217.70;;;20.63;47.35
50011;BME280;35899;50.352;19.390;2023-07-08T20:11:21;98217.88;;;20.66;47.72
50011;BME280;35899;50.352;19.390;2023-07-08T20:14:35;98218.42;;;20.66;48.28
50011;BME280;35899;50.352;19.390;2023-07-08T20:20:42;98222.05;;;20.73;48.83
50011;BME280;35899;50.352;19.390;2023-07-08T20:23:50;98228.61;;;20.73;49.10
50011;BME280;35899;50.352;19.390;2023-07-08T20:30:31;98224.50;;;20.59;49.86
50011;BME280;35899;50.352;19.390;2023-07-08T20:39:36;98230.44;;;20.36;50.69
50011;BME280;35899;50.352;19.390;2023-07-08T20:52:10;98239.73;;;19.88;51.86
50011;BME280;35899;50.352;19.390;2023-07-08T20:54:55;98240.23;;;19.68;52.29
50011;BME280;35899;50.352;19.390;2023-07-08T21:01:21;98243.11;;;19.53;52.84
50011;BME280;35899;50.352;19.390;2023-07-08T21:04:31;98246.84;;;19.48;53.04
50011;BME280;35899;50.352;19.390;2023-07-08T21:07:32;98248.11;;;19.42;53.28
50011;BME280;35899;50.352;19.390;2023-07-08T21:13:35;98245.70;;;19.35;53.86
50011;BME280;35899;50.352;19.390;2023-07-08T21:17:07;98244.38;;;19.27;54.16
50011;BME280;35899;50.352;19.390;2023-07-08T21:19:32;98244.54;;;19.22;54.34
50011;BME280;35899;50.352;19.390;2023-07-08T21:22:07;98249.59;;;19.19;54.56
50011;BME280;35899;50.352;19.390;2023-07-08T21:24:39;98251.84;;;19.16;54.82
50011;BME280;35899;50.352;19.390;2023-07-08T21:27:27;98252.21;;;19.12;55.10
50011;BME280;35899;50.352;19.390;2023-07-08T21:30:27;98255.69;;;19.07;55.26
50011;BME280;35899;50.352;19.390;2023-07-08T21:33:25;98257.73;;;18.99;55.32
50011;BME280;35899;50.352;19.390;2023-07-08T21:36:23;98256.48;;;18.90;55.46
